sensor_id;sensor_type;location;lat;lon;timestamp;P1;durP1;ratioP1;P2;durP2;ratioP2
69046;SDS011;57261;47.504;19.084;2022-08-30T00:00:41;10.00;;;6.53;;
69046;SDS011;57261;47.504;19.084;2022-08-30T00:04:01;10.85;;;6.88;;
69046;SDS011;57261;47.504;19.084;2022-08-30T00:07:02;10.57;;;6.40;;
69046;SDS011;57261;47.504;19.084;2022-08-30T00:10:03;11.40;;;6.70;;
69046;SDS011;57261;47.504;19.084;2022-08-30T00:13:04;10.68;;;6.53;;
69046;SDS011;57261;47.504;19.084;2022-08-30T00:16:05;11.73;;;6.80;;
69046;SDS011;57261;47.504;19.084;2022-08-30T00:19:06;11.07;;;6.40;;
69046;SDS011;57261;47.504;19.084;2022-08-30T00:22:06;10.47;;;6.60;;
69046;SDS011;57261;47.504;19.084;2022-08-30T00:25:12;10.18;;;6.60;;
69046;SDS011;57261;47.504;19.084;2022-08-30T00:28:14;10.85;;;6.93;;
69046;SDS011;57261;47.504;19.084;2022-08-30T00:31:15;10.48;;;6.55;;
69046;SDS011;57261;47.504;19.084;2022-08-30T00:34:16;10.53;;;6.63;;
69046;SDS011;57261;47.504;19.084;2022-08-30T00:37:17;11.18;;;7.32;;
69046;SDS011;57261;47.504;19.084;2022-08-30T00:40:18;10.13;;;6.97;;
69046;SDS011;57261;47.504;19.084;2022-08-30T00:43:24;10.18;;;6.70;;
69046;SDS011;57261;47.504;19.084;2022-08-30T00:46:28;11.65;;;6.90;;
69046;SDS011;57261;47.504;19.084;2022-08-30T00:49:29;11.02;;;7.18;;
69046;SDS011;57261;47.504;19.084;2022-08-30T00:52:29;9.50;;;6.30;;
69046;SDS011;57261;47.504;19.084;2022-08-30T00:55:30;9.90;;;6.60;;
69046;SDS011;57261;47.504;19.084;2022-08-30T00:58:33;9.77;;;6.57;;
69046;SDS011;57261;47.504;19.084;2022-08-30T01:01:36;10.10;;;6.60;;
69046;SDS011;57261;47.504;19.084;2022-08-30T01:04:37;10.57;;;6.55;;
69046;SDS011;57261;47.504;19.084;2022-08-30T01:07:42;9.90;;;6.45;;
69046;SDS011;57261;47.504;19.084;2022-08-30T01:10:42;10.30;;;6.70;;
69046;SDS011;57261;47.504;19.084;2022-08-30T01:13:43;10.57;;;6.65;;
69046;SDS011;57261;47.504;19.084;2022-08-30T01:16:46;10.20;;;6.80;;
69046;SDS011;57261;47.504;19.084;2022-08-30T01:26:19;9.52;;;6.75;;
69046;SDS011;57261;47.504;19.084;2022-08-30T01:29:21;10.27;;;6.25;;
69046;SDS011;57261;47.504;19.084;2022-08-30T01:32:25;10.15;;;6.78;;
69046;SDS011;57261;47.504;19.084;2022-08-30T01:35:29;9.67;;;6.60;;
69046;SDS011;57261;47.504;19.084;2022-08-30T01:41:46;10.98;;;6.68;;
69046;SDS011;57261;47.504;19.084;2022-08-30T01:44:47;11.23;;;7.03;;
69046;SDS011;57261;47.504;19.084;2022-08-30T01:47:47;10.90;;;6.65;;
69046;SDS011;57261;47.504;19.084;2022-08-30T01:50:49;10.73;;;7.13;;
69046;SDS011;57261;47.504;19.084;2022-08-30T01:53:50;12.10;;;6.83;;
69046;SDS011;57261;47.504;19.084;2022-08-30T01:56:50;11.20;;;7.30;;
69046;SDS011;57261;47.504;19.084;2022-08-30T01:59:51;11.55;;;7.55;;
69046;SDS011;57261;47.504;19.084;2022-08-30T02:02:51;10.40;;;6.90;;
69046;SDS011;57261;47.504;19.084;2022-08-30T02:05:52;13.30;;;7.33;;
69046;SDS011;57261;47.504;19.084;2022-08-30T02:08:52;11.73;;;7.37;;
69046;SDS011;57261;47.504;19.084;2022-08-30T02:11:53;12.60;;;7.57;;
69046;SDS011;57261;47.504;19.084;2022-08-30T02:14:53;11.83;;;7.47;;
69046;SDS011;57261;47.504;19.084;2022-08-30T02:17:57;12.73;;;8.05;;
69046;SDS011;57261;47.504;19.084;2022-08-30T02:20:58;12.20;;;7.57;;
69046;SDS011;57261;47.504;19.084;2022-08-30T02:23:58;11.88;;;7.97;;
69046;SDS011;57261;47.504;19.084;2022-08-30T02:26:59;14.13;;;7.90;;
69046;SDS011;57261;47.504;19.084;2022-08-30T02:29:59;13.13;;;7.37;;
69046;SDS011;57261;47.504;19.084;2022-08-30T02:33:00;10.63;;;7.28;;
69046;SDS011;57261;47.504;19.084;2022-08-30T02:36:00;11.80;;;7.53;;
69046;SDS011;57261;47.504;19.084;2022-08-30T02:39:02;11.38;;;7.40;;
69046;SDS011;57261;47.504;19.084;2022-08-30T02:42:02;14.23;;;7.40;;
69046;SDS011;57261;47.504;19.084;2022-08-30T02:45:03;12.80;;;7.77;;
69046;SDS011;57261;47.504;19.084;2022-08-30T02:48:05;10.65;;;6.97;;
69046;SDS011;57261;47.504;19.084;2022-08-30T02:51:07;11.70;;;7.63;;
69046;SDS011;57261;47.504;19.084;2022-08-30T02:54:11;11.40;;;7.32;;
69046;SDS011;57261;47.504;19.084;2022-08-30T02:57:18;11.77;;;7.82;;
69046;SDS011;57261;47.504;19.084;2022-08-30T03:00:19;11.53;;;8.00;;
69046;SDS011;57261;47.504;19.084;2022-08-30T03:03:24;13.13;;;8.20;;
69046;SDS011;57261;47.504;19.084;2022-08-30T03:06:24;12.73;;;8.43;;
69046;SDS011;57261;47.504;19.084;2022-08-30T03:09:24;11.40;;;7.87;;
69046;SDS011;57261;47.504;19.084;2022-08-30T03:12:25;12.40;;;7.63;;
69046;SDS011;57261;47.504;19.084;2022-08-30T03:15:26;12.10;;;7.43;;
69046;SDS011;57261;47.504;19.084;2022-08-30T03:18:26;12.13;;;7.23;;
69046;SDS011;57261;47.504;19.084;2022-08-30T03:21:27;11.60;;;7.38;;
69046;SDS011;57261;47.504;19.084;2022-08-30T03:24:28;11.17;;;7.17;;
69046;SDS011;57261;47.504;19.084;2022-08-30T03:27:28;11.60;;;8.00;;
69046;SDS011;57261;47.504;19.084;2022-08-30T03:30:32;12.45;;;7.82;;
69046;SDS011;57261;47.504;19.084;2022-08-30T03:33:33;12.38;;;7.43;;
69046;SDS011;57261;47.504;19.084;2022-08-30T03:36:34;11.73;;;7.47;;
69046;SDS011;57261;47.504;19.084;2022-08-30T03:39:34;11.23;;;7.10;;
69046;SDS011;57261;47.504;19.084;2022-08-30T03:42:35;12.17;;;7.40;;
69046;SDS011;57261;47.504;19.084;2022-08-30T03:45:35;10.67;;;7.03;;
69046;SDS011;57261;47.504;19.084;2022-08-30T03:48:36;11.40;;;7.03;;
69046;SDS011;57261;47.504;19.084;2022-08-30T03:51:36;12.32;;;6.85;;
69046;SDS011;57261;47.504;19.084;2022-08-30T03:54:36;11.40;;;7.43;;
69046;SDS011;57261;47.504;19.084;2022-08-30T03:57:39;10.47;;;6.77;;
69046;SDS011;57261;47.504;19.084;2022-08-30T04:00:41;11.90;;;7.27;;
69046;SDS011;57261;47.504;19.084;2022-08-30T04:03:41;12.05;;;7.60;;
69046;SDS011;57261;47.504;19.084;2022-08-30T04:06:42;12.37;;;7.77;;
69046;SDS011;57261;47.504;19.084;2022-08-30T04:09:42;11.33;;;7.43;;
69046;SDS011;57261;47.504;19.084;2022-08-30T04:12:43;12.52;;;7.57;;
69046;SDS011;57261;47.504;19.084;2022-08-30T04:15:44;12.30;;;7.37;;
69046;SDS011;57261;47.504;19.084;2022-08-30T04:18:44;12.53;;;7.30;;
69046;SDS011;57261;47.504;19.084;2022-08-30T04:21:44;14.17;;;8.13;;
69046;SDS011;57261;47.504;19.084;2022-08-30T04:24:45;12.48;;;8.15;;
69046;SDS011;57261;47.504;19.084;2022-08-30T04:27:45;12.30;;;7.83;;
69046;SDS011;57261;47.504;19.084;2022-08-30T04:30:46;12.80;;;8.30;;
69046;SDS011;57261;47.504;19.084;2022-08-30T04:33:46;15.20;;;8.30;;
69046;SDS011;57261;47.504;19.084;2022-08-30T04:36:47;12.88;;;8.07;;
69046;SDS011;57261;47.504;19.084;2022-08-30T04:39:48;12.77;;;8.03;;
69046;SDS011;57261;47.504;19.084;2022-08-30T04:42:49;12.65;;;8.00;;
69046;SDS011;57261;47.504;19.084;2022-08-30T04:45:53;12.15;;;8.18;;
69046;SDS011;57261;47.504;19.084;2022-08-30T04:48:56;11.98;;;8.20;;
69046;SDS011;57261;47.504;19.084;2022-08-30T04:51:56;13.00;;;8.40;;
69046;SDS011;57261;47.504;19.084;2022-08-30T04:54:57;12.55;;;8.15;;
69046;SDS011;57261;47.504;19.084;2022-08-30T04:58:02;12.40;;;8.37;;
69046;SDS011;57261;47.504;19.084;2022-08-30T05:01:10;13.80;;;8.80;;
69046;SDS011;57261;47.504;19.084;2022-08-30T05:04:13;15.00;;;9.10;;
69046;SDS011;57261;47.504;19.084;2022-08-30T05:07:14;14.00;;;9.65;;
69046;SDS011;57261;47.504;19.084;2022-08-30T05:10:14;14.27;;;9.60;;
69046;SDS011;57261;47.504;19.084;2022-08-30T05:13:15;13.90;;;8.83;;
69046;SDS011;57261;47.504;19.084;2022-08-30T05:16:17;12.68;;;9.02;;
69046;SDS011;57261;47.504;19.084;2022-08-30T05:19:18;17.45;;;8.32;;
69046;SDS011;57261;47.504;19.084;2022-08-30T05:22:18;14.33;;;8.97;;
69046;SDS011;57261;47.504;19.084;2022-08-30T05:25:23;12.70;;;9.23;;
69046;SDS011;57261;47.504;19.084;2022-08-30T05:28:25;13.68;;;8.55;;
69046;SDS011;57261;47.504;19.084;2022-08-30T05:31:30;14.63;;;10.20;;
69046;SDS011;57261;47.504;19.084;2022-08-30T05:34:33;15.20;;;10.30;;
69046;SDS011;57261;47.504;19.084;2022-08-30T05:37:34;13.95;;;9.70;;
69046;SDS011;57261;47.504;19.084;2022-08-30T05:40:38;14.13;;;9.23;;
69046;SDS011;57261;47.504;19.084;2022-08-30T05:43:40;14.85;;;10.18;;
69046;SDS011;57261;47.504;19.084;2022-08-30T05:46:41;14.65;;;9.88;;
69046;SDS011;57261;47.504;19.084;2022-08-30T05:49:45;16.83;;;10.37;;
69046;SDS011;57261;47.504;19.084;2022-08-30T05:52:46;16.13;;;11.40;;
69046;SDS011;57261;47.504;19.084;2022-08-30T05:55:46;15.43;;;9.98;;
69046;SDS011;57261;47.504;19.084;2022-08-30T05:58:47;16.20;;;10.70;;
69046;SDS011;57261;47.504;19.084;2022-08-30T06:01:47;16.97;;;10.70;;
69046;SDS011;57261;47.504;19.084;2022-08-30T06:04:48;18.93;;;12.07;;
69046;SDS011;57261;47.504;19.084;2022-08-30T06:07:48;18.03;;;11.70;;
69046;SDS011;57261;47.504;19.084;2022-08-30T06:10:49;16.48;;;10.60;;
69046;SDS011;57261;47.504;19.084;2022-08-30T06:13:50;17.70;;;10.70;;
69046;SDS011;57261;47.504;19.084;2022-08-30T06:16:51;17.37;;;12.17;;
69046;SDS011;57261;47.504;19.084;2022-08-30T06:19:52;17.40;;;11.27;;
69046;SDS011;57261;47.504;19.084;2022-08-30T06:22:53;18.90;;;10.83;;
69046;SDS011;57261;47.504;19.084;2022-08-30T06:25:53;18.65;;;9.93;;
69046;SDS011;57261;47.504;19.084;2022-08-30T06:28:54;14.80;;;9.97;;
69046;SDS011;57261;47.504;19.084;2022-08-30T06:31:56;15.45;;;9.40;;
69046;SDS011;57261;47.504;19.084;2022-08-30T06:34:57;14.60;;;10.10;;
69046;SDS011;57261;47.504;19.084;2022-08-30T06:37:58;18.43;;;10.10;;
69046;SDS011;57261;47.504;19.084;2022-08-30T06:40:58;14.57;;;10.27;;
69046;SDS011;57261;47.504;19.084;2022-08-30T06:44:04;14.35;;;10.10;;
69046;SDS011;57261;47.504;19.084;2022-08-30T06:47:05;15.67;;;10.47;;
69046;SDS011;57261;47.504;19.084;2022-08-30T06:50:07;15.38;;;9.98;;
69046;SDS011;57261;47.504;19.084;2022-08-30T06:53:08;14.00;;;9.50;;
69046;SDS011;57261;47.504;19.084;2022-08-30T06:56:09;15.35;;;9.88;;
69046;SDS011;57261;47.504;19.084;2022-08-30T06:59:11;14.50;;;9.37;;
69046;SDS011;57261;47.504;19.084;2022-08-30T07:02:12;14.20;;;9.13;;
69046;SDS011;57261;47.504;19.084;2022-08-30T07:05:12;14.50;;;9.23;;
69046;SDS011;57261;47.504;19.084;2022-08-30T07:08:13;15.40;;;9.50;;
69046;SDS011;57261;47.504;19.084;2022-08-30T07:11:13;18.05;;;9.35;;
69046;SDS011;57261;47.504;19.084;2022-08-30T07:14:14;15.30;;;9.90;;
69046;SDS011;57261;47.504;19.084;2022-08-30T07:17:14;15.93;;;10.60;;
69046;SDS011;57261;47.504;19.084;2022-08-30T07:20:36;15.70;;;9.90;;
69046;SDS011;57261;47.504;19.084;2022-08-30T07:23:36;14.73;;;9.38;;
69046;SDS011;57261;47.504;19.084;2022-08-30T07:26:44;14.80;;;9.83;;
69046;SDS011;57261;47.504;19.084;2022-08-30T07:29:48;13.70;;;9.52;;
69046;SDS011;57261;47.504;19.084;2022-08-30T07:32:49;13.37;;;8.20;;
69046;SDS011;57261;47.504;19.084;2022-08-30T07:35:49;14.63;;;9.33;;
69046;SDS011;57261;47.504;19.084;2022-08-30T07:38:50;14.07;;;9.25;;
69046;SDS011;57261;47.504;19.084;2022-08-30T07:41:51;12.37;;;7.93;;
69046;SDS011;57261;47.504;19.084;2022-08-30T07:44:51;14.13;;;8.73;;
69046;SDS011;57261;47.504;19.084;2022-08-30T07:47:51;12.87;;;8.23;;
69046;SDS011;57261;47.504;19.084;2022-08-30T07:50:52;12.50;;;8.07;;
69046;SDS011;57261;47.504;19.084;2022-08-30T07:53:53;13.00;;;8.27;;
69046;SDS011;57261;47.504;19.084;2022-08-30T07:56:54;12.27;;;8.30;;
69046;SDS011;57261;47.504;19.084;2022-08-30T07:59:54;12.53;;;8.20;;
69046;SDS011;57261;47.504;19.084;2022-08-30T08:02:55;14.98;;;9.60;;
69046;SDS011;57261;47.504;19.084;2022-08-30T08:05:55;15.97;;;10.53;;
69046;SDS011;57261;47.504;19.084;2022-08-30T08:08:56;20.90;;;10.87;;
69046;SDS011;57261;47.504;19.084;2022-08-30T08:12:02;14.45;;;10.45;;
69046;SDS011;57261;47.504;19.084;2022-08-30T08:15:05;17.35;;;11.02;;
69046;SDS011;57261;47.504;19.084;2022-08-30T08:18:06;18.58;;;12.20;;
69046;SDS011;57261;47.504;19.084;2022-08-30T08:21:07;21.80;;;13.90;;
69046;SDS011;57261;47.504;19.084;2022-08-30T08:24:07;17.80;;;12.30;;
69046;SDS011;57261;47.504;19.084;2022-08-30T08:27:08;17.20;;;12.53;;
69046;SDS011;57261;47.504;19.084;2022-08-30T08:30:10;15.93;;;11.57;;
69046;SDS011;57261;47.504;19.084;2022-08-30T08:33:10;17.02;;;11.38;;
69046;SDS011;57261;47.504;19.084;2022-08-30T08:36:13;14.25;;;8.95;;
69046;SDS011;57261;47.504;19.084;2022-08-30T08:39:14;13.20;;;8.60;;
69046;SDS011;57261;47.504;19.084;2022-08-30T08:42:21;14.50;;;9.27;;
69046;SDS011;57261;47.504;19.084;2022-08-30T08:48:56;17.83;;;10.15;;
69046;SDS011;57261;47.504;19.084;2022-08-30T08:52:00;14.95;;;10.13;;
69046;SDS011;57261;47.504;19.084;2022-08-30T08:55:19;14.20;;;9.10;;
69046;SDS011;57261;47.504;19.084;2022-08-30T08:58:23;14.50;;;10.18;;
69046;SDS011;57261;47.504;19.084;2022-08-30T09:01:26;13.63;;;9.80;;
69046;SDS011;57261;47.504;19.084;2022-08-30T09:04:29;14.38;;;9.30;;
69046;SDS011;57261;47.504;19.084;2022-08-30T09:07:37;12.65;;;8.80;;
69046;SDS011;57261;47.504;19.084;2022-08-30T09:10:47;13.20;;;8.60;;
69046;SDS011;57261;47.504;19.084;2022-08-30T09:13:55;11.98;;;7.50;;
69046;SDS011;57261;47.504;19.084;2022-08-30T09:20:04;11.45;;;7.57;;
69046;SDS011;57261;47.504;19.084;2022-08-30T09:26:14;10.82;;;7.53;;
69046;SDS011;57261;47.504;19.084;2022-08-30T09:29:26;11.65;;;7.00;;
69046;SDS011;57261;47.504;19.084;2022-08-30T09:33:17;11.40;;;7.80;;
69046;SDS011;57261;47.504;19.084;2022-08-30T09:35:54;11.43;;;7.07;;
69046;SDS011;57261;47.504;19.084;2022-08-30T09:38:59;11.77;;;7.47;;
69046;SDS011;57261;47.504;19.084;2022-08-30T09:45:33;12.32;;;7.47;;
69046;SDS011;57261;47.504;19.084;2022-08-30T09:48:38;11.88;;;7.97;;
69046;SDS011;57261;47.504;19.084;2022-08-30T09:51:46;12.95;;;7.72;;
69046;SDS011;57261;47.504;19.084;2022-08-30T10:01:30;12.60;;;7.63;;
69046;SDS011;57261;47.504;19.084;2022-08-30T10:11:11;12.02;;;7.65;;
69046;SDS011;57261;47.504;19.084;2022-08-30T10:14:30;11.18;;;7.50;;
69046;SDS011;57261;47.504;19.084;2022-08-30T10:24:07;12.60;;;8.48;;
69046;SDS011;57261;47.504;19.084;2022-08-30T10:27:19;13.10;;;7.93;;
69046;SDS011;57261;47.504;19.084;2022-08-30T10:30:28;14.32;;;7.50;;
69046;SDS011;57261;47.504;19.084;2022-08-30T10:33:43;14.75;;;8.90;;
69046;SDS011;57261;47.504;19.084;2022-08-30T10:36:49;14.57;;;9.00;;
69046;SDS011;57261;47.504;19.084;2022-08-30T10:40:02;13.70;;;8.38;;
69046;SDS011;57261;47.504;19.084;2022-08-30T10:43:31;13.38;;;8.70;;
69046;SDS011;57261;47.504;19.084;2022-08-30T10:46:58;13.00;;;8.80;;
69046;SDS011;57261;47.504;19.084;2022-08-30T10:50:21;14.20;;;9.52;;
69046;SDS011;57261;47.504;19.084;2022-08-30T10:53:28;13.37;;;8.87;;
69046;SDS011;57261;47.504;19.084;2022-08-30T10:56:50;13.85;;;9.32;;
69046;SDS011;57261;47.504;19.084;2022-08-30T10:59:53;15.98;;;11.52;;
69046;SDS011;57261;47.504;19.084;2022-08-30T11:06:26;16.40;;;12.45;;
69046;SDS011;57261;47.504;19.084;2022-08-30T11:09:57;19.63;;;12.47;;
69046;SDS011;57261;47.504;19.084;2022-08-30T11:13:10;16.95;;;11.45;;
69046;SDS011;57261;47.504;19.084;2022-08-30T11:16:15;17.67;;;11.05;;
69046;SDS011;57261;47.504;19.084;2022-08-30T11:22:28;14.43;;;9.77;;
69046;SDS011;57261;47.504;19.084;2022-08-30T11:25:48;13.03;;;8.97;;
69046;SDS011;57261;47.504;19.084;2022-08-30T11:29:04;13.20;;;9.30;;
69046;SDS011;57261;47.504;19.084;2022-08-30T11:35:33;14.50;;;9.05;;
69046;SDS011;57261;47.504;19.084;2022-08-30T11:44:43;13.33;;;9.07;;
69046;SDS011;57261;47.504;19.084;2022-08-30T11:47:50;13.33;;;8.90;;
69046;SDS011;57261;47.504;19.084;2022-08-30T11:54:10;14.67;;;9.90;;
69046;SDS011;57261;47.504;19.084;2022-08-30T11:57:29;15.60;;;9.93;;
69046;SDS011;57261;47.504;19.084;2022-08-30T12:01:12;13.02;;;9.25;;
69046;SDS011;57261;47.504;19.084;2022-08-30T12:04:44;13.63;;;9.35;;
69046;SDS011;57261;47.504;19.084;2022-08-30T12:11:01;12.40;;;8.97;;
69046;SDS011;57261;47.504;19.084;2022-08-30T12:14:31;15.80;;;10.25;;
69046;SDS011;57261;47.504;19.084;2022-08-30T12:17:51;13.10;;;9.10;;
69046;SDS011;57261;47.504;19.084;2022-08-30T12:24:33;19.33;;;13.33;;
69046;SDS011;57261;47.504;19.084;2022-08-30T12:27:39;19.83;;;14.07;;
69046;SDS011;57261;47.504;19.084;2022-08-30T12:30:39;18.00;;;12.57;;
69046;SDS011;57261;47.504;19.084;2022-08-30T12:33:42;16.47;;;11.73;;
69046;SDS011;57261;47.504;19.084;2022-08-30T12:36:57;20.92;;;14.13;;
69046;SDS011;57261;47.504;19.084;2022-08-30T12:40:00;16.92;;;11.40;;
69046;SDS011;57261;47.504;19.084;2022-08-30T12:43:23;20.48;;;12.80;;
69046;SDS011;57261;47.504;19.084;2022-08-30T12:46:25;18.33;;;13.90;;
69046;SDS011;57261;47.504;19.084;2022-08-30T12:49:28;14.30;;;10.07;;
69046;SDS011;57261;47.504;19.084;2022-08-30T12:52:36;11.02;;;8.40;;
69046;SDS011;57261;47.504;19.084;2022-08-30T12:55:51;11.60;;;8.50;;
69046;SDS011;57261;47.504;19.084;2022-08-30T12:58:54;14.02;;;9.60;;
69046;SDS011;57261;47.504;19.084;2022-08-30T13:02:04;16.73;;;10.80;;
69046;SDS011;57261;47.504;19.084;2022-08-30T13:11:46;12.27;;;8.80;;
69046;SDS011;57261;47.504;19.084;2022-08-30T13:14:48;12.38;;;8.95;;
69046;SDS011;57261;47.504;19.084;2022-08-30T13:17:48;15.23;;;12.03;;
69046;SDS011;57261;47.504;19.084;2022-08-30T13:21:34;17.58;;;12.27;;
69046;SDS011;57261;47.504;19.084;2022-08-30T13:24:45;13.52;;;10.50;;
69046;SDS011;57261;47.504;19.084;2022-08-30T13:27:46;14.67;;;8.30;;
69046;SDS011;57261;47.504;19.084;2022-08-30T13:30:47;11.77;;;8.40;;
69046;SDS011;57261;47.504;19.084;2022-08-30T13:33:48;13.27;;;9.23;;
69046;SDS011;57261;47.504;19.084;2022-08-30T13:36:53;14.85;;;10.77;;
69046;SDS011;57261;47.504;19.084;2022-08-30T13:39:55;14.90;;;10.48;;
69046;SDS011;57261;47.504;19.084;2022-08-30T13:42:55;13.87;;;9.90;;
69046;SDS011;57261;47.504;19.084;2022-08-30T13:45:56;12.03;;;9.30;;
69046;SDS011;57261;47.504;19.084;2022-08-30T13:49:04;12.73;;;9.20;;
69046;SDS011;57261;47.504;19.084;2022-08-30T13:52:09;12.87;;;8.53;;
69046;SDS011;57261;47.504;19.084;2022-08-30T13:55:12;14.50;;;9.60;;
69046;SDS011;57261;47.504;19.084;2022-08-30T13:58:13;14.87;;;10.07;;
69046;SDS011;57261;47.504;19.084;2022-08-30T14:01:15;14.43;;;9.60;;
69046;SDS011;57261;47.504;19.084;2022-08-30T14:04:15;13.70;;;8.95;;
69046;SDS011;57261;47.504;19.084;2022-08-30T14:07:16;13.23;;;9.33;;
69046;SDS011;57261;47.504;19.084;2022-08-30T14:10:17;13.07;;;9.07;;
69046;SDS011;57261;47.504;19.084;2022-08-30T14:13:18;13.77;;;8.93;;
69046;SDS011;57261;47.504;19.084;2022-08-30T14:16:19;13.43;;;8.97;;
69046;SDS011;57261;47.504;19.084;2022-08-30T14:19:19;11.50;;;8.20;;
69046;SDS011;57261;47.504;19.084;2022-08-30T14:22:20;11.07;;;8.40;;
69046;SDS011;57261;47.504;19.084;2022-08-30T14:25:20;12.83;;;7.83;;
69046;SDS011;57261;47.504;19.084;2022-08-30T14:28:21;11.43;;;8.17;;
69046;SDS011;57261;47.504;19.084;2022-08-30T14:31:22;11.60;;;7.80;;
69046;SDS011;57261;47.504;19.084;2022-08-30T14:34:23;11.43;;;7.57;;
69046;SDS011;57261;47.504;19.084;2022-08-30T14:37:24;11.77;;;8.00;;
69046;SDS011;57261;47.504;19.084;2022-08-30T14:40:24;15.35;;;8.80;;
69046;SDS011;57261;47.504;19.084;2022-08-30T14:43:25;13.63;;;8.70;;
69046;SDS011;57261;47.504;19.084;2022-08-30T14:46:25;13.03;;;8.50;;
69046;SDS011;57261;47.504;19.084;2022-08-30T14:49:26;13.13;;;9.30;;
69046;SDS011;57261;47.504;19.084;2022-08-30T14:52:27;13.27;;;9.30;;
69046;SDS011;57261;47.504;19.084;2022-08-30T14:55:28;13.57;;;9.30;;
69046;SDS011;57261;47.504;19.084;2022-08-30T14:58:31;14.07;;;9.87;;
69046;SDS011;57261;47.504;19.084;2022-08-30T15:01:31;13.67;;;9.53;;
69046;SDS011;57261;47.504;19.084;2022-08-30T15:04:33;15.50;;;9.73;;
69046;SDS011;57261;47.504;19.084;2022-08-30T15:07:33;16.02;;;9.80;;
69046;SDS011;57261;47.504;19.084;2022-08-30T15:10:34;14.40;;;10.65;;
69046;SDS011;57261;47.504;19.084;2022-08-30T15:13:35;13.57;;;9.10;;
69046;SDS011;57261;47.504;19.084;2022-08-30T15:16:36;13.83;;;9.13;;
69046;SDS011;57261;47.504;19.084;2022-08-30T15:19:37;14.43;;;9.68;;
69046;SDS011;57261;47.504;19.084;2022-08-30T15:22:39;17.20;;;9.40;;
69046;SDS011;57261;47.504;19.084;2022-08-30T15:25:40;15.40;;;9.20;;
69046;SDS011;57261;47.504;19.084;2022-08-30T15:28:41;16.42;;;10.45;;
69046;SDS011;57261;47.504;19.084;2022-08-30T15:31:42;16.17;;;9.97;;
69046;SDS011;57261;47.504;19.084;2022-08-30T15:34:43;14.85;;;10.05;;
69046;SDS011;57261;47.504;19.084;2022-08-30T15:37:44;14.80;;;9.33;;
69046;SDS011;57261;47.504;19.084;2022-08-30T15:40:47;13.67;;;9.10;;
69046;SDS011;57261;47.504;19.084;2022-08-30T15:43:48;13.98;;;9.23;;
69046;SDS011;57261;47.504;19.084;2022-08-30T15:46:49;14.93;;;9.20;;
69046;SDS011;57261;47.504;19.084;2022-08-30T15:49:53;14.70;;;8.47;;
69046;SDS011;57261;47.504;19.084;2022-08-30T15:52:55;13.15;;;8.75;;
69046;SDS011;57261;47.504;19.084;2022-08-30T15:55:55;13.87;;;9.07;;
69046;SDS011;57261;47.504;19.084;2022-08-30T15:58:56;13.87;;;9.13;;
69046;SDS011;57261;47.504;19.084;2022-08-30T16:01:56;13.13;;;8.80;;
69046;SDS011;57261;47.504;19.084;2022-08-30T16:04:57;13.77;;;8.80;;
69046;SDS011;57261;47.504;19.084;2022-08-30T16:07:57;15.33;;;9.37;;
69046;SDS011;57261;47.504;19.084;2022-08-30T16:10:57;13.73;;;9.03;;
69046;SDS011;57261;47.504;19.084;2022-08-30T16:13:58;14.47;;;9.00;;
69046;SDS011;57261;47.504;19.084;2022-08-30T16:16:58;16.17;;;8.77;;
69046;SDS011;57261;47.504;19.084;2022-08-30T16:19:59;14.02;;;8.57;;
69046;SDS011;57261;47.504;19.084;2022-08-30T16:23:00;16.30;;;9.20;;
69046;SDS011;57261;47.504;19.084;2022-08-30T16:26:02;16.85;;;9.07;;
69046;SDS011;57261;47.504;19.084;2022-08-30T16:29:07;13.43;;;8.40;;
69046;SDS011;57261;47.504;19.084;2022-08-30T16:32:07;14.00;;;8.73;;
69046;SDS011;57261;47.504;19.084;2022-08-30T16:35:08;12.93;;;8.07;;
69046;SDS011;57261;47.504;19.084;2022-08-30T16:38:08;13.80;;;8.57;;
69046;SDS011;57261;47.504;19.084;2022-08-30T16:41:11;15.00;;;9.27;;
69046;SDS011;57261;47.504;19.084;2022-08-30T16:44:12;17.65;;;9.52;;
69046;SDS011;57261;47.504;19.084;2022-08-30T16:47:13;14.13;;;9.20;;
69046;SDS011;57261;47.504;19.084;2022-08-30T16:50:14;14.50;;;9.00;;
69046;SDS011;57261;47.504;19.084;2022-08-30T16:53:17;13.77;;;9.20;;
69046;SDS011;57261;47.504;19.084;2022-08-30T16:56:18;13.35;;;9.00;;
69046;SDS011;57261;47.504;19.084;2022-08-30T16:59:23;12.57;;;8.40;;
69046;SDS011;57261;47.504;19.084;2022-08-30T17:02:24;13.32;;;8.05;;
69046;SDS011;57261;47.504;19.084;2022-08-30T17:05:24;12.63;;;8.07;;
69046;SDS011;57261;47.504;19.084;2022-08-30T17:08:28;13.45;;;8.57;;
69046;SDS011;57261;47.504;19.084;2022-08-30T17:11:29;14.13;;;8.15;;
69046;SDS011;57261;47.504;19.084;2022-08-30T17:14:29;13.67;;;8.13;;
69046;SDS011;57261;47.504;19.084;2022-08-30T17:17:31;13.07;;;8.47;;
69046;SDS011;57261;47.504;19.084;2022-08-30T17:20:32;11.80;;;7.13;;
69046;SDS011;57261;47.504;19.084;2022-08-30T17:23:32;11.70;;;7.67;;
69046;SDS011;57261;47.504;19.084;2022-08-30T17:26:34;12.40;;;7.25;;
69046;SDS011;57261;47.504;19.084;2022-08-30T17:29:35;12.33;;;7.50;;
69046;SDS011;57261;47.504;19.084;2022-08-30T17:32:36;12.33;;;7.20;;
69046;SDS011;57261;47.504;19.084;2022-08-30T17:35:36;11.00;;;7.07;;
69046;SDS011;57261;47.504;19.084;2022-08-30T17:38:37;12.47;;;7.20;;
69046;SDS011;57261;47.504;19.084;2022-08-30T17:41:41;10.60;;;6.28;;
69046;SDS011;57261;47.504;19.084;2022-08-30T17:44:42;11.77;;;6.53;;
69046;SDS011;57261;47.504;19.084;2022-08-30T17:47:44;10.23;;;6.65;;
69046;SDS011;57261;47.504;19.084;2022-08-30T17:50:53;10.98;;;6.80;;
69046;SDS011;57261;47.504;19.084;2022-08-30T17:53:54;12.30;;;7.10;;
69046;SDS011;57261;47.504;19.084;2022-08-30T17:56:55;12.40;;;6.93;;
69046;SDS011;57261;47.504;19.084;2022-08-30T17:59:57;11.90;;;7.15;;
69046;SDS011;57261;47.504;19.084;2022-08-30T18:02:57;10.80;;;6.90;;
69046;SDS011;57261;47.504;19.084;2022-08-30T18:05:58;11.80;;;7.43;;
69046;SDS011;57261;47.504;19.084;2022-08-30T18:09:00;11.20;;;6.90;;
69046;SDS011;57261;47.504;19.084;2022-08-30T18:12:01;11.00;;;6.75;;
69046;SDS011;57261;47.504;19.084;2022-08-30T18:15:03;11.30;;;6.38;;
69046;SDS011;57261;47.504;19.084;2022-08-30T18:18:04;11.17;;;6.13;;
69046;SDS011;57261;47.504;19.084;2022-08-30T18:21:10;10.13;;;6.65;;
69046;SDS011;57261;47.504;19.084;2022-08-30T18:24:12;10.63;;;6.33;;
69046;SDS011;57261;47.504;19.084;2022-08-30T18:27:14;10.30;;;6.10;;
69046;SDS011;57261;47.504;19.084;2022-08-30T18:30:14;10.07;;;6.20;;
69046;SDS011;57261;47.504;19.084;2022-08-30T18:33:15;10.07;;;6.13;;
69046;SDS011;57261;47.504;19.084;2022-08-30T18:36:17;10.38;;;6.30;;
69046;SDS011;57261;47.504;19.084;2022-08-30T18:39:18;9.30;;;6.10;;
69046;SDS011;57261;47.504;19.084;2022-08-30T18:42:19;12.57;;;6.43;;
69046;SDS011;57261;47.504;19.084;2022-08-30T18:45:20;10.98;;;6.13;;
69046;SDS011;57261;47.504;19.084;2022-08-30T18:48:22;10.60;;;6.18;;
69046;SDS011;57261;47.504;19.084;2022-08-30T18:51:23;9.97;;;6.10;;
69046;SDS011;57261;47.504;19.084;2022-08-30T18:54:24;10.55;;;6.18;;
69046;SDS011;57261;47.504;19.084;2022-08-30T18:57:25;11.23;;;6.13;;
69046;SDS011;57261;47.504;19.084;2022-08-30T19:00:25;9.47;;;5.90;;
69046;SDS011;57261;47.504;19.084;2022-08-30T19:03:25;10.23;;;5.80;;
69046;SDS011;57261;47.504;19.084;2022-08-30T19:06:26;9.80;;;5.53;;